sensor_id;sensor_type;location;lat;lon;timestamp;temperature;humidity
3154;DHT22;1587;48.630;9.046;2022-08-21T00:01:54;12.70;99.90
3154;DHT22;1587;48.630;9.046;2022-08-21T00:04:19;12.80;99.90
3154;DHT22;1587;48.630;9.046;2022-08-21T00:06:45;12.80;99.90
3154;DHT22;1587;48.630;9.046;2022-08-21T00:09:10;12.70;99.90
3154;DHT22;1587;48.630;9.046;2022-08-21T00:11:37;12.60;99.90
3154;DHT22;1587;48.630;9.046;2022-08-21T00:14:04;12.60;99.90
3154;DHT22;1587;48.630;9.046;2022-08-21T00:16:30;12.50;99.90
3154;DHT22;1587;48.630;9.046;2022-08-21T00:18:55;12.40;99.90
3154;DHT22;1587;48.630;9.046;2022-08-21T00:21:20;12.40;99.90
3154;DHT22;1587;48.630;9.046;2022-08-21T00:23:47;12.30;99.90
3154;DHT22;1587;48.630;9.046;2022-08-21T00:26:12;12.30;99.90
3154;DHT22;1587;48.630;9.046;2022-08-21T00:28:38;12.20;99.90
3154;DHT22;1587;48.630;9.046;2022-08-21T00:31:03;12.40;99.90
3154;DHT22;1587;48.630;9.046;2022-08-21T00:33:29;12.40;99.90
3154;DHT22;1587;48.630;9.046;2022-08-21T00:35:55;12.40;99.90
3154;DHT22;1587;48.630;9.046;2022-08-21T00:38:20;12.50;99.90
3154;DHT22;1587;48.630;9.046;2022-08-21T00:40:48;12.40;99.90
3154;DHT22;1587;48.630;9.046;2022-08-21T00:43:15;12.20;99.90
3154;DHT22;1587;48.630;9.046;2022-08-21T00:45:43;12.20;99.90
3154;DHT22;1587;48.630;9.046;2022-08-21T00:48:09;12.20;99.90
3154;DHT22;1587;48.630;9.046;2022-08-21T00:50:35;12.30;99.90
3154;DHT22;1587;48.630;9.046;2022-08-21T00:53:03;12.30;99.90
3154;DHT22;1587;48.630;9.046;2022-08-21T00:55:30;12.20;99.90
3154;DHT22;1587;48.630;9.046;2022-08-21T00:57:56;12.10;99.90
3154;DHT22;1587;48.630;9.046;2022-08-21T01:00:24;12.20;99.90
3154;DHT22;1587;48.630;9.046;2022-08-21T01:02:50;12.30;99.90
3154;DHT22;1587;48.630;9.046;2022-08-21T01:05:15;12.30;99.90
3154;DHT22;1587;48.630;9.046;2022-08-21T01:07:42;12.50;99.90
3154;DHT22;1587;48.630;9.046;2022-08-21T01:10:09;12.50;99.90
3154;DHT22;1587;48.630;9.046;2022-08-21T01:12:34;12.40;99.90
3154;DHT22;1587;48.630;9.046;2022-08-21T01:15:01;12.30;99.90
3154;DHT22;1587;48.630;9.046;2022-08-21T01:17:29;12.00;99.90
3154;DHT22;1587;48.630;9.046;2022-08-21T01:19:59;11.70;99.90
3154;DHT22;1587;48.630;9.046;2022-08-21T01:22:24;11.70;99.90
3154;DHT22;1587;48.630;9.046;2022-08-21T01:24:50;11.80;99.90
3154;DHT22;1587;48.630;9.046;2022-08-21T01:27:16;11.90;99.90
3154;DHT22;1587;48.630;9.046;2022-08-21T01:29:43;11.90;99.90
3154;DHT22;1587;48.630;9.046;2022-08-21T01:32:11;11.70;99.90
3154;DHT22;1587;48.630;9.046;2022-08-21T01:34:38;11.60;99.90
3154;DHT22;1587;48.630;9.046;2022-08-21T01:37:04;11.60;99.90
3154;DHT22;1587;48.630;9.046;2022-08-21T01:39:30;11.60;99.90
3154;DHT22;1587;48.630;9.046;2022-08-21T01:41:56;11.40;99.90
3154;DHT22;1587;48.630;9.046;2022-08-21T01:44:21;11.30;99.90
3154;DHT22;1587;48.630;9.046;2022-08-21T01:46:47;11.30;99.90
3154;DHT22;1587;48.630;9.046;2022-08-21T01:49:13;11.40;99.90
3154;DHT22;1587;48.630;9.046;2022-08-21T01:51:39;11.30;99.90
3154;DHT22;1587;48.630;9.046;2022-08-21T01:54:05;11.20;99.90
3154;DHT22;1587;48.630;9.046;2022-08-21T01:56:35;11.20;99.90
3154;DHT22;1587;48.630;9.046;2022-08-21T01:59:01;11.10;99.90
3154;DHT22;1587;48.630;9.046;2022-08-21T02:01:27;11.10;99.90
3154;DHT22;1587;48.630;9.046;2022-08-21T02:03:52;11.10;99.90
3154;DHT22;1587;48.630;9.046;2022-08-21T02:06:18;11.00;99.90
3154;DHT22;1587;48.630;9.046;2022-08-21T02:08:44;11.10;99.90
3154;DHT22;1587;48.630;9.046;2022-08-21T02:11:10;11.00;99.90
3154;DHT22;1587;48.630;9.046;2022-08-21T02:13:35;10.90;99.90
3154;DHT22;1587;48.630;9.046;2022-08-21T02:16:01;10.80;99.90
3154;DHT22;1587;48.630;9.046;2022-08-21T02:18:26;10.70;99.90
3154;DHT22;1587;48.630;9.046;2022-08-21T02:20:52;10.70;99.90
3154;DHT22;1587;48.630;9.046;2022-08-21T02:23:17;10.70;99.90
3154;DHT22;1587;48.630;9.046;2022-08-21T02:25:43;10.70;99.90
3154;DHT22;1587;48.630;9.046;2022-08-21T02:28:10;10.70;99.90
3154;DHT22;1587;48.630;9.046;2022-08-21T02:30:37;10.70;99.90
3154;DHT22;1587;48.630;9.046;2022-08-21T02:33:04;10.80;99.90
3154;DHT22;1587;48.630;9.046;2022-08-21T02:35:29;10.90;99.90
3154;DHT22;1587;48.630;9.046;2022-08-21T02:37:59;10.80;99.90
3154;DHT22;1587;48.630;9.046;2022-08-21T02:40:26;10.70;99.90
3154;DHT22;1587;48.630;9.046;2022-08-21T02:42:52;10.60;99.90
3154;DHT22;1587;48.630;9.046;2022-08-21T02:45:18;10.50;99.90
3154;DHT22;1587;48.630;9.046;2022-08-21T02:47:51;10.50;99.90
3154;DHT22;1587;48.630;9.046;2022-08-21T02:50:18;10.50;99.90
3154;DHT22;1587;48.630;9.046;2022-08-21T02:52:43;10.40;99.90
3154;DHT22;1587;48.630;9.046;2022-08-21T02:55:10;10.40;99.90
3154;DHT22;1587;48.630;9.046;2022-08-21T02:57:36;10.30;99.90
3154;DHT22;1587;48.630;9.046;2022-08-21T03:00:02;10.40;99.90
3154;DHT22;1587;48.630;9.046;2022-08-21T03:02:28;10.40;99.90
3154;DHT22;1587;48.630;9.046;2022-08-21T03:04:54;10.30;99.90
3154;DHT22;1587;48.630;9.046;2022-08-21T03:07:19;10.40;99.90
3154;DHT22;1587;48.630;9.046;2022-08-21T03:09:45;10.30;99.90
3154;DHT22;1587;48.630;9.046;2022-08-21T03:12:10;10.30;99.90
3154;DHT22;1587;48.630;9.046;2022-08-21T03:14:36;10.30;99.90
3154;DHT22;1587;48.630;9.046;2022-08-21T03:17:01;10.40;99.90
3154;DHT22;1587;48.630;9.046;2022-08-21T03:19:27;10.30;99.90
3154;DHT22;1587;48.630;9.046;2022-08-21T03:21:52;10.20;99.90
3154;DHT22;1587;48.630;9.046;2022-08-21T03:24:18;10.20;99.90
3154;DHT22;1587;48.630;9.046;2022-08-21T03:26:43;10.30;99.90
3154;DHT22;1587;48.630;9.046;2022-08-21T03:29:09;10.20;99.90
3154;DHT22;1587;48.630;9.046;2022-08-21T03:31:34;10.10;99.90
3154;DHT22;1587;48.630;9.046;2022-08-21T03:34:00;10.10;99.90
3154;DHT22;1587;48.630;9.046;2022-08-21T03:36:25;10.10;99.90
3154;DHT22;1587;48.630;9.046;2022-08-21T03:38:51;10.10;99.90
3154;DHT22;1587;48.630;9.046;2022-08-21T03:41:16;10.00;99.90
3154;DHT22;1587;48.630;9.046;2022-08-21T03:43:42;10.00;99.90
3154;DHT22;1587;48.630;9.046;2022-08-21T03:46:07;10.10;99.90
3154;DHT22;1587;48.630;9.046;2022-08-21T03:48:33;10.00;99.90
3154;DHT22;1587;48.630;9.046;2022-08-21T03:50:59;10.00;99.90
3154;DHT22;1587;48.630;9.046;2022-08-21T03:53:24;10.00;99.90
3154;DHT22;1587;48.630;9.046;2022-08-21T03:55:50;9.90;99.90
3154;DHT22;1587;48.630;9.046;2022-08-21T03:58:18;9.90;99.90
3154;DHT22;1587;48.630;9.046;2022-08-21T04:00:45;9.90;99.90
3154;DHT22;1587;48.630;9.046;2022-08-21T04:03:11;9.90;99.90
3154;DHT22;1587;48.630;9.046;2022-08-21T04:05:36;9.90;99.90
3154;DHT22;1587;48.630;9.046;2022-08-21T04:08:04;9.90;99.90
3154;DHT22;1587;48.630;9.046;2022-08-21T04:10:30;9.90;99.90
3154;DHT22;1587;48.630;9.046;2022-08-21T04:12:56;9.90;99.90
3154;DHT22;1587;48.630;9.046;2022-08-21T04:15:22;9.90;99.90
3154;DHT22;1587;48.630;9.046;2022-08-21T04:17:48;9.80;99.90
3154;DHT22;1587;48.630;9.046;2022-08-21T04:20:15;9.70;99.90
3154;DHT22;1587;48.630;9.046;2022-08-21T04:22:40;9.80;99.90
3154;DHT22;1587;48.630;9.046;2022-08-21T04:25:06;9.80;99.90
3154;DHT22;1587;48.630;9.046;2022-08-21T04:27:33;9.80;99.90
3154;DHT22;1587;48.630;9.046;2022-08-21T04:29:58;9.80;99.90
3154;DHT22;1587;48.630;9.046;2022-08-21T04:32:25;9.80;99.90
3154;DHT22;1587;48.630;9.046;2022-08-21T04:34:57;9.80;99.90
3154;DHT22;1587;48.630;9.046;2022-08-21T04:37:22;9.70;99.90
3154;DHT22;1587;48.630;9.046;2022-08-21T04:39:48;9.60;99.90
3154;DHT22;1587;48.630;9.046;2022-08-21T04:42:13;9.50;99.90
3154;DHT22;1587;48.630;9.046;2022-08-21T04:44:39;9.50;99.90
3154;DHT22;1587;48.630;9.046;2022-08-21T04:47:05;9.60;99.90
3154;DHT22;1587;48.630;9.046;2022-08-21T04:49:31;9.60;99.90
3154;DHT22;1587;48.630;9.046;2022-08-21T04:51:56;9.70;99.90
3154;DHT22;1587;48.630;9.046;2022-08-21T04:54:22;9.70;99.90
3154;DHT22;1587;48.630;9.046;2022-08-21T04:59:15;9.70;99.90
3154;DHT22;1587;48.630;9.046;2022-08-21T05:01:41;9.90;99.90
3154;DHT22;1587;48.630;9.046;2022-08-21T05:04:09;10.00;99.90
3154;DHT22;1587;48.630;9.046;2022-08-21T05:06:37;9.90;99.90
3154;DHT22;1587;48.630;9.046;2022-08-21T05:09:03;10.00;99.90
3154;DHT22;1587;48.630;9.046;2022-08-21T05:11:29;10.00;99.90
3154;DHT22;1587;48.630;9.046;2022-08-21T05:13:55;10.00;99.90
3154;DHT22;1587;48.630;9.046;2022-08-21T05:16:21;10.10;99.90
3154;DHT22;1587;48.630;9.046;2022-08-21T05:18:46;10.20;99.90
3154;DHT22;1587;48.630;9.046;2022-08-21T05:21:12;10.30;99.90
3154;DHT22;1587;48.630;9.046;2022-08-21T05:23:37;10.30;99.90
3154;DHT22;1587;48.630;9.046;2022-08-21T05:26:03;10.30;99.90
3154;DHT22;1587;48.630;9.046;2022-08-21T05:28:29;10.40;99.90
3154;DHT22;1587;48.630;9.046;2022-08-21T05:30:55;10.50;99.90
3154;DHT22;1587;48.630;9.046;2022-08-21T05:33:21;10.50;99.90
3154;DHT22;1587;48.630;9.046;2022-08-21T05:35:49;10.70;99.90
3154;DHT22;1587;48.630;9.046;2022-08-21T05:38:14;11.00;99.90
3154;DHT22;1587;48.630;9.046;2022-08-21T05:40:40;11.10;99.90
3154;DHT22;1587;48.630;9.046;2022-08-21T05:43:05;11.00;99.90
3154;DHT22;1587;48.630;9.046;2022-08-21T05:45:32;11.10;99.90
3154;DHT22;1587;48.630;9.046;2022-08-21T05:47:57;11.20;99.90
3154;DHT22;1587;48.630;9.046;2022-08-21T05:50:23;11.50;99.90
3154;DHT22;1587;48.630;9.046;2022-08-21T05:52:49;11.50;99.90
3154;DHT22;1587;48.630;9.046;2022-08-21T05:55:14;11.60;99.90
3154;DHT22;1587;48.630;9.046;2022-08-21T05:57:40;11.70;99.90
3154;DHT22;1587;48.630;9.046;2022-08-21T06:00:08;11.80;99.90
3154;DHT22;1587;48.630;9.046;2022-08-21T06:02:38;12.00;99.90
3154;DHT22;1587;48.630;9.046;2022-08-21T06:05:04;12.10;99.90
3154;DHT22;1587;48.630;9.046;2022-08-21T06:07:29;12.20;99.90
3154;DHT22;1587;48.630;9.046;2022-08-21T06:09:55;12.30;99.90
3154;DHT22;1587;48.630;9.046;2022-08-21T06:12:21;12.30;99.90
3154;DHT22;1587;48.630;9.046;2022-08-21T06:14:46;12.30;99.90
3154;DHT22;1587;48.630;9.046;2022-08-21T06:17:12;12.40;99.90
3154;DHT22;1587;48.630;9.046;2022-08-21T06:19:39;12.60;99.90
3154;DHT22;1587;48.630;9.046;2022-08-21T06:22:04;12.80;99.90
3154;DHT22;1587;48.630;9.046;2022-08-21T06:24:30;13.00;99.90
3154;DHT22;1587;48.630;9.046;2022-08-21T06:26:55;13.10;99.90
3154;DHT22;1587;48.630;9.046;2022-08-21T06:29:22;13.20;99.90
3154;DHT22;1587;48.630;9.046;2022-08-21T06:31:48;13.40;99.90
3154;DHT22;1587;48.630;9.046;2022-08-21T06:34:14;13.60;99.90
3154;DHT22;1587;48.630;9.046;2022-08-21T06:36:40;13.70;99.90
3154;DHT22;1587;48.630;9.046;2022-08-21T06:39:06;13.80;99.90
3154;DHT22;1587;48.630;9.046;2022-08-21T06:41:31;13.90;99.90
3154;DHT22;1587;48.630;9.046;2022-08-21T06:43:57;13.90;99.90
3154;DHT22;1587;48.630;9.046;2022-08-21T06:46:24;14.00;99.90
3154;DHT22;1587;48.630;9.046;2022-08-21T06:48:50;14.20;99.90
3154;DHT22;1587;48.630;9.046;2022-08-21T06:51:16;14.30;99.90
3154;DHT22;1587;48.630;9.046;2022-08-21T06:53:42;14.50;99.90
3154;DHT22;1587;48.630;9.046;2022-08-21T06:56:07;14.70;99.90
3154;DHT22;1587;48.630;9.046;2022-08-21T06:58:33;14.90;99.90
3154;DHT22;1587;48.630;9.046;2022-08-21T07:00:59;15.10;99.90
3154;DHT22;1587;48.630;9.046;2022-08-21T07:03:29;15.30;99.90
3154;DHT22;1587;48.630;9.046;2022-08-21T07:05:55;15.40;99.90
3154;DHT22;1587;48.630;9.046;2022-08-21T07:08:23;15.70;99.90
3154;DHT22;1587;48.630;9.046;2022-08-21T07:10:49;15.90;99.90
3154;DHT22;1587;48.630;9.046;2022-08-21T07:13:14;16.20;99.90
3154;DHT22;1587;48.630;9.046;2022-08-21T07:15:40;16.40;99.90
3154;DHT22;1587;48.630;9.046;2022-08-21T07:18:06;16.70;99.90
3154;DHT22;1587;48.630;9.046;2022-08-21T07:20:32;17.10;99.90
3154;DHT22;1587;48.630;9.046;2022-08-21T07:22:59;18.30;99.90
3154;DHT22;1587;48.630;9.046;2022-08-21T07:25:26;19.40;99.90
3154;DHT22;1587;48.630;9.046;2022-08-21T07:27:51;20.40;99.90
3154;DHT22;1587;48.630;9.046;2022-08-21T07:30:17;20.80;99.40
3154;DHT22;1587;48.630;9.046;2022-08-21T07:32:43;21.90;96.00
3154;DHT22;1587;48.630;9.046;2022-08-21T07:35:09;21.90;95.20
3154;DHT22;1587;48.630;9.046;2022-08-21T07:37:35;22.20;93.60
3154;DHT22;1587;48.630;9.046;2022-08-21T07:40:00;22.20;93.60
3154;DHT22;1587;48.630;9.046;2022-08-21T07:42:25;22.40;93.00
3154;DHT22;1587;48.630;9.046;2022-08-21T07:44:51;23.30;90.90
3154;DHT22;1587;48.630;9.046;2022-08-21T07:47:16;23.60;88.90
3154;DHT22;1587;48.630;9.046;2022-08-21T07:49:42;24.40;87.10
3154;DHT22;1587;48.630;9.046;2022-08-21T07:52:07;25.10;83.70
3154;DHT22;1587;48.630;9.046;2022-08-21T07:54:33;25.30;78.00
3154;DHT22;1587;48.630;9.046;2022-08-21T07:56:59;24.80;81.00
3154;DHT22;1587;48.630;9.046;2022-08-21T07:59:24;25.20;78.40
3154;DHT22;1587;48.630;9.046;2022-08-21T08:01:50;25.70;76.00
3154;DHT22;1587;48.630;9.046;2022-08-21T08:04:15;25.30;75.50
3154;DHT22;1587;48.630;9.046;2022-08-21T08:06:41;25.50;76.00
3154;DHT22;1587;48.630;9.046;2022-08-21T08:09:06;26.60;73.50
3154;DHT22;1587;48.630;9.046;2022-08-21T08:11:32;26.50;72.80
3154;DHT22;1587;48.630;9.046;2022-08-21T08:13:58;26.70;71.30
3154;DHT22;1587;48.630;9.046;2022-08-21T08:16:25;26.70;72.70
3154;DHT22;1587;48.630;9.046;2022-08-21T08:18:50;26.50;73.00
3154;DHT22;1587;48.630;9.046;2022-08-21T08:21:16;26.20;72.10
3154;DHT22;1587;48.630;9.046;2022-08-21T08:23:44;25.60;73.70
3154;DHT22;1587;48.630;9.046;2022-08-21T08:26:10;26.80;72.40
3154;DHT22;1587;48.630;9.046;2022-08-21T08:28:36;27.80;71.10
3154;DHT22;1587;48.630;9.046;2022-08-21T08:31:01;27.80;64.80
3154;DHT22;1587;48.630;9.046;2022-08-21T08:33:27;26.80;66.00
3154;DHT22;1587;48.630;9.046;2022-08-21T08:35:52;26.90;64.30
3154;DHT22;1587;48.630;9.046;2022-08-21T08:38:19;26.80;68.10
3154;DHT22;1587;48.630;9.046;2022-08-21T08:43:30;27.50;63.10
3154;DHT22;1587;48.630;9.046;2022-08-21T08:45:57;28.40;65.90
3154;DHT22;1587;48.630;9.046;2022-08-21T08:48:39;29.30;59.60
3154;DHT22;1587;48.630;9.046;2022-08-21T08:51:07;29.30;57.10
3154;DHT22;1587;48.630;9.046;2022-08-21T08:54:19;28.70;60.10
3154;DHT22;1587;48.630;9.046;2022-08-21T08:56:28;28.80;58.00
3154;DHT22;1587;48.630;9.046;2022-08-21T08:58:54;29.10;57.30
3154;DHT22;1587;48.630;9.046;2022-08-21T09:01:22;28.60;56.80
3154;DHT22;1587;48.630;9.046;2022-08-21T09:03:48;29.30;57.80
3154;DHT22;1587;48.630;9.046;2022-08-21T09:06:21;28.90;56.30
3154;DHT22;1587;48.630;9.046;2022-08-21T09:16:44;30.90;57.00
3154;DHT22;1587;48.630;9.046;2022-08-21T09:19:24;30.90;57.00
3154;DHT22;1587;48.630;9.046;2022-08-21T09:22:40;30.90;57.80
3154;DHT22;1587;48.630;9.046;2022-08-21T09:27:08;30.80;57.10
3154;DHT22;1587;48.630;9.046;2022-08-21T09:29:35;31.40;52.50
3154;DHT22;1587;48.630;9.046;2022-08-21T09:32:02;30.70;54.00
3154;DHT22;1587;48.630;9.046;2022-08-21T09:34:29;29.90;57.20
3154;DHT22;1587;48.630;9.046;2022-08-21T09:36:56;30.90;54.00
3154;DHT22;1587;48.630;9.046;2022-08-21T09:39:31;31.50;51.40
3154;DHT22;1587;48.630;9.046;2022-08-21T09:41:58;31.20;52.10
3154;DHT22;1587;48.630;9.046;2022-08-21T09:44:28;30.30;51.00
3154;DHT22;1587;48.630;9.046;2022-08-21T09:46:53;30.20;50.90
3154;DHT22;1587;48.630;9.046;2022-08-21T09:49:35;30.60;51.60
3154;DHT22;1587;48.630;9.046;2022-08-21T09:52:02;31.60;54.20
3154;DHT22;1587;48.630;9.046;2022-08-21T09:54:30;33.10;51.30
3154;DHT22;1587;48.630;9.046;2022-08-21T09:57:12;33.30;48.30
3154;DHT22;1587;48.630;9.046;2022-08-21T10:00:07;33.80;48.10
3154;DHT22;1587;48.630;9.046;2022-08-21T10:02:33;33.70;47.90
3154;DHT22;1587;48.630;9.046;2022-08-21T10:05:03;33.80;48.10
3154;DHT22;1587;48.630;9.046;2022-08-21T10:07:32;33.70;47.80
3154;DHT22;1587;48.630;9.046;2022-08-21T10:12:29;34.40;43.90
3154;DHT22;1587;48.630;9.046;2022-08-21T10:20:25;32.90;46.90
3154;DHT22;1587;48.630;9.046;2022-08-21T10:23:02;34.00;44.70
3154;DHT22;1587;48.630;9.046;2022-08-21T10:25:48;34.30;44.30
3154;DHT22;1587;48.630;9.046;2022-08-21T10:28:18;34.60;45.50
3154;DHT22;1587;48.630;9.046;2022-08-21T10:31:02;34.90;42.40
3154;DHT22;1587;48.630;9.046;2022-08-21T10:41:17;32.20;47.10
3154;DHT22;1587;48.630;9.046;2022-08-21T10:48:57;33.30;45.50
3154;DHT22;1587;48.630;9.046;2022-08-21T10:51:35;33.40;43.70
3154;DHT22;1587;48.630;9.046;2022-08-21T10:54:45;34.80;45.80
3154;DHT22;1587;48.630;9.046;2022-08-21T10:56:54;34.80;43.20
3154;DHT22;1587;48.630;9.046;2022-08-21T11:02:15;35.00;42.10
3154;DHT22;1587;48.630;9.046;2022-08-21T11:07:06;31.10;49.30
3154;DHT22;1587;48.630;9.046;2022-08-21T11:09:32;32.50;46.50
3154;DHT22;1587;48.630;9.046;2022-08-21T11:12:10;34.20;42.60
3154;DHT22;1587;48.630;9.046;2022-08-21T11:15:01;35.20;41.40
3154;DHT22;1587;48.630;9.046;2022-08-21T11:20:23;30.50;50.20
3154;DHT22;1587;48.630;9.046;2022-08-21T11:22:51;31.80;43.50
3154;DHT22;1587;48.630;9.046;2022-08-21T11:25:22;28.90;51.00
3154;DHT22;1587;48.630;9.046;2022-08-21T11:27:52;32.30;46.30
3154;DHT22;1587;48.630;9.046;2022-08-21T11:30:19;34.30;42.00
3154;DHT22;1587;48.630;9.046;2022-08-21T11:45:49;28.50;51.20
3154;DHT22;1587;48.630;9.046;2022-08-21T11:50:43;25.90;57.60
3154;DHT22;1587;48.630;9.046;2022-08-21T11:55:43;25.00;62.50
3154;DHT22;1587;48.630;9.046;2022-08-21T12:01:05;24.70;63.80
3154;DHT22;1587;48.630;9.046;2022-08-21T12:03:33;24.50;60.30
3154;DHT22;1587;48.630;9.046;2022-08-21T12:06:09;24.50;60.50
3154;DHT22;1587;48.630;9.046;2022-08-21T12:08:42;24.40;60.60
3154;DHT22;1587;48.630;9.046;2022-08-21T12:13:54;31.10;52.50
3154;DHT22;1587;48.630;9.046;2022-08-21T12:16:33;33.00;44.60
3154;DHT22;1587;48.630;9.046;2022-08-21T12:19:41;33.50;46.00
3154;DHT22;1587;48.630;9.046;2022-08-21T12:22:09;34.20;43.50
3154;DHT22;1587;48.630;9.046;2022-08-21T12:29:37;32.60;42.00
3154;DHT22;1587;48.630;9.046;2022-08-21T12:32:04;28.30;50.30
3154;DHT22;1587;48.630;9.046;2022-08-21T12:34:49;26.40;55.90
3154;DHT22;1587;48.630;9.046;2022-08-21T12:39:44;32.50;44.40
3154;DHT22;1587;48.630;9.046;2022-08-21T12:42:23;30.50;46.80
3154;DHT22;1587;48.630;9.046;2022-08-21T12:49:46;25.50;57.20
3154;DHT22;1587;48.630;9.046;2022-08-21T12:52:16;25.10;57.10
3154;DHT22;1587;48.630;9.046;2022-08-21T12:54:45;25.60;57.30
3154;DHT22;1587;48.630;9.046;2022-08-21T12:57:18;26.60;57.10
3154;DHT22;1587;48.630;9.046;2022-08-21T12:59:44;28.30;51.40
3154;DHT22;1587;48.630;9.046;2022-08-21T13:02:14;26.80;57.80
3154;DHT22;1587;48.630;9.046;2022-08-21T13:04:40;25.80;58.80
3154;DHT22;1587;48.630;9.046;2022-08-21T13:07:07;25.70;62.80
3154;DHT22;1587;48.630;9.046;2022-08-21T13:09:36;25.50;57.40
3154;DHT22;1587;48.630;9.046;2022-08-21T13:12:06;26.50;61.90
3154;DHT22;1587;48.630;9.046;2022-08-21T13:14:35;30.10;51.50
3154;DHT22;1587;48.630;9.046;2022-08-21T13:17:00;30.10;47.10
3154;DHT22;1587;48.630;9.046;2022-08-21T13:19:29;30.30;47.30
3154;DHT22;1587;48.630;9.046;2022-08-21T13:21:55;31.80;44.40
3154;DHT22;1587;48.630;9.046;2022-08-21T13:24:23;31.60;45.20
3154;DHT22;1587;48.630;9.046;2022-08-21T13:26:49;30.50;47.80
3154;DHT22;1587;48.630;9.046;2022-08-21T13:29:16;29.80;50.50
3154;DHT22;1587;48.630;9.046;2022-08-21T13:31:46;29.00;50.40
3154;DHT22;1587;48.630;9.046;2022-08-21T13:34:11;27.90;51.50
3154;DHT22;1587;48.630;9.046;2022-08-21T13:36:39;27.60;51.70
3154;DHT22;1587;48.630;9.046;2022-08-21T13:39:10;27.50;56.30
3154;DHT22;1587;48.630;9.046;2022-08-21T13:41:37;27.10;55.50
3154;DHT22;1587;48.630;9.046;2022-08-21T13:44:05;27.10;57.10
3154;DHT22;1587;48.630;9.046;2022-08-21T13:46:32;26.70;56.50
3154;DHT22;1587;48.630;9.046;2022-08-21T13:49:03;26.40;58.50
3154;DHT22;1587;48.630;9.046;2022-08-21T13:51:29;26.10;55.80
3154;DHT22;1587;48.630;9.046;2022-08-21T13:53:56;26.40;56.20
3154;DHT22;1587;48.630;9.046;2022-08-21T13:56:29;26.20;56.90
3154;DHT22;1587;48.630;9.046;2022-08-21T13:58:56;27.00;58.10
3154;DHT22;1587;48.630;9.046;2022-08-21T14:03:59;28.60;52.40
3154;DHT22;1587;48.630;9.046;2022-08-21T14:06:27;27.00;56.30
3154;DHT22;1587;48.630;9.046;2022-08-21T14:08:54;25.90;56.90
3154;DHT22;1587;48.630;9.046;2022-08-21T14:11:20;25.60;60.70
3154;DHT22;1587;48.630;9.046;2022-08-21T14:13:48;25.50;60.70
3154;DHT22;1587;48.630;9.046;2022-08-21T14:16:19;25.40;62.10
3154;DHT22;1587;48.630;9.046;2022-08-21T14:18:50;25.40;58.70
3154;DHT22;1587;48.630;9.046;2022-08-21T14:21:23;25.40;59.30
3154;DHT22;1587;48.630;9.046;2022-08-21T14:24:08;25.10;59.00
3154;DHT22;1587;48.630;9.046;2022-08-21T14:26:35;25.20;61.60
3154;DHT22;1587;48.630;9.046;2022-08-21T14:29:01;25.40;60.50
3154;DHT22;1587;48.630;9.046;2022-08-21T14:31:32;27.60;53.70
3154;DHT22;1587;48.630;9.046;2022-08-21T14:34:00;26.50;56.70
3154;DHT22;1587;48.630;9.046;2022-08-21T14:36:26;29.40;52.50
3154;DHT22;1587;48.630;9.046;2022-08-21T14:38:52;30.40;50.60
3154;DHT22;1587;48.630;9.046;2022-08-21T14:41:19;32.60;45.70
3154;DHT22;1587;48.630;9.046;2022-08-21T14:43:46;33.50;45.90
3154;DHT22;1587;48.630;9.046;2022-08-21T14:46:13;33.50;44.70
3154;DHT22;1587;48.630;9.046;2022-08-21T14:48:44;33.10;42.60
3154;DHT22;1587;48.630;9.046;2022-08-21T14:51:10;33.10;42.30
3154;DHT22;1587;48.630;9.046;2022-08-21T14:53:36;33.00;44.00
3154;DHT22;1587;48.630;9.046;2022-08-21T14:56:01;33.30;44.20
3154;DHT22;1587;48.630;9.046;2022-08-21T14:58:30;33.70;42.80
3154;DHT22;1587;48.630;9.046;2022-08-21T15:00:56;33.30;44.10
3154;DHT22;1587;48.630;9.046;2022-08-21T15:03:23;34.00;43.20
3154;DHT22;1587;48.630;9.046;2022-08-21T15:05:49;33.10;42.80
3154;DHT22;1587;48.630;9.046;2022-08-21T15:08:15;33.20;43.50
3154;DHT22;1587;48.630;9.046;2022-08-21T15:10:41;33.00;44.30
3154;DHT22;1587;48.630;9.046;2022-08-21T15:13:06;33.70;44.60
3154;DHT22;1587;48.630;9.046;2022-08-21T15:15:34;32.80;43.70
3154;DHT22;1587;48.630;9.046;2022-08-21T15:18:00;31.80;44.00
3154;DHT22;1587;48.630;9.046;2022-08-21T15:20:26;31.50;46.70
3154;DHT22;1587;48.630;9.046;2022-08-21T15:22:52;31.80;44.50
3154;DHT22;1587;48.630;9.046;2022-08-21T15:25:17;31.80;45.70
3154;DHT22;1587;48.630;9.046;2022-08-21T15:27:43;31.30;45.10
3154;DHT22;1587;48.630;9.046;2022-08-21T15:30:09;30.80;45.30
3154;DHT22;1587;48.630;9.046;2022-08-21T15:32:35;31.20;45.20
3154;DHT22;1587;48.630;9.046;2022-08-21T15:35:00;31.90;46.90
3154;DHT22;1587;48.630;9.046;2022-08-21T15:37:27;30.80;47.30
3154;DHT22;1587;48.630;9.046;2022-08-21T15:39:52;29.10;49.10
3154;DHT22;1587;48.630;9.046;2022-08-21T15:42:18;27.80;53.10
3154;DHT22;1587;48.630;9.046;2022-08-21T15:44:44;27.10;53.00
3154;DHT22;1587;48.630;9.046;2022-08-21T15:47:12;27.00;55.90
3154;DHT22;1587;48.630;9.046;2022-08-21T15:49:39;27.00;55.90
3154;DHT22;1587;48.630;9.046;2022-08-21T15:52:06;26.80;54.60
3154;DHT22;1587;48.630;9.046;2022-08-21T15:54:31;26.40;54.50
3154;DHT22;1587;48.630;9.046;2022-08-21T15:56:57;26.60;57.90
3154;DHT22;1587;48.630;9.046;2022-08-21T15:59:22;26.60;57.10
3154;DHT22;1587;48.630;9.046;2022-08-21T16:01:49;26.50;57.30
3154;DHT22;1587;48.630;9.046;2022-08-21T16:04:23;26.30;55.40
3154;DHT22;1587;48.630;9.046;2022-08-21T16:06:49;26.10;57.20
3154;DHT22;1587;48.630;9.046;2022-08-21T16:09:15;26.20;56.20
3154;DHT22;1587;48.630;9.046;2022-08-21T16:11:41;26.30;57.70
3154;DHT22;1587;48.630;9.046;2022-08-21T16:14:06;26.30;56.80
3154;DHT22;1587;48.630;9.046;2022-08-21T16:16:32;26.30;58.00
3154;DHT22;1587;48.630;9.046;2022-08-21T16:18:58;26.10;56.40
3154;DHT22;1587;48.630;9.046;2022-08-21T16:21:24;26.20;57.40
3154;DHT22;1587;48.630;9.046;2022-08-21T16:23:49;26.00;57.30
3154;DHT22;1587;48.630;9.046;2022-08-21T16:26:15;26.20;55.90
3154;DHT22;1587;48.630;9.046;2022-08-21T16:28:41;26.10;55.50
3154;DHT22;1587;48.630;9.046;2022-08-21T16:31:08;26.10;54.80
3154;DHT22;1587;48.630;9.046;2022-08-21T16:33:34;25.80;55.20
3154;DHT22;1587;48.630;9.046;2022-08-21T16:36:01;25.80;56.50
3154;DHT22;1587;48.630;9.046;2022-08-21T16:38:27;25.70;56.70
3154;DHT22;1587;48.630;9.046;2022-08-21T16:40:53;25.60;57.90
3154;DHT22;1587;48.630;9.046;2022-08-21T16:43:22;25.40;58.40
3154;DHT22;1587;48.630;9.046;2022-08-21T16:45:49;25.30;57.80
3154;DHT22;1587;48.630;9.046;2022-08-21T16:48:14;25.30;58.30
3154;DHT22;1587;48.630;9.046;2022-08-21T16:50:40;25.20;58.00
3154;DHT22;1587;48.630;9.046;2022-08-21T16:53:05;25.20;58.40
3154;DHT22;1587;48.630;9.046;2022-08-21T16:55:32;25.10;59.50
3154;DHT22;1587;48.630;9.046;2022-08-21T16:58:07;25.10;58.60
3154;DHT22;1587;48.630;9.046;2022-08-21T17:00:33;25.00;59.20
3154;DHT22;1587;48.630;9.046;2022-08-21T17:02:59;24.80;60.30
3154;DHT22;1587;48.630;9.046;2022-08-21T17:05:25;24.70;59.40
3154;DHT22;1587;48.630;9.046;2022-08-21T17:07:50;24.70;60.00
3154;DHT22;1587;48.630;9.046;2022-08-21T17:10:16;24.60;59.20
3154;DHT22;1587;48.630;9.046;2022-08-21T17:12:43;24.50;60.80
3154;DHT22;1587;48.630;9.046;2022-08-21T17:15:13;24.40;59.80
3154;DHT22;1587;48.630;9.046;2022-08-21T17:17:39;24.10;62.70
3154;DHT22;1587;48.630;9.046;2022-08-21T17:20:05;23.90;63.90
3154;DHT22;1587;48.630;9.046;2022-08-21T17:22:30;23.70;62.10
3154;DHT22;1587;48.630;9.046;2022-08-21T17:24:56;23.30;63.10
3154;DHT22;1587;48.630;9.046;2022-08-21T17:27:22;23.30;63.70